Time;durP1;ratioP1;P1;durP2;ratioP2;P2;SDS_P1;SDS_P2;PMS_P1;PMS_P2;Temp;Humidity;BMP_temperature;BMP_pressure;BME280_temperature;BME280_humidity;BME280_pressure;Samples;Min_cycle;Max_cycle;Signal;HPM_P1;HPM_P2
2022/10/05 00:00:22;;;;;;;17.47;11.00;;;9.00;99.90;;;;;;5095190;28;20478;-73
2022/10/05 00:02:51;;;;;;;15.10;10.37;;;8.90;99.90;;;;;;5090039;28;20475;-73
2022/10/05 00:05:22;;;;;;;19.13;10.27;;;8.90;99.90;;;;;;5101813;28;20830;-73
2022/10/05 00:07:49;;;;;;;16.37;9.80;;;8.90;99.90;;;;;;5099962;28;20956;-74
2022/10/05 00:10:17;;;;;;;17.73;10.30;;;8.90;99.90;;;;;;5093926;28;20822;-73
2022/10/05 00:12:46;;;;;;;17.80;10.40;;;8.80;99.90;;;;;;5095213;28;20454;-73
2022/10/05 00:15:23;;;;;;;15.43;9.63;;;8.80;99.90;;;;;;5094396;28;20460;-73
2022/10/05 00:17:49;;;;;;;16.77;9.97;;;8.80;99.90;;;;;;5094959;28;20455;-73
2022/10/05 00:20:20;;;;;;;15.90;9.73;;;8.70;99.90;;;;;;5096108;28;20494;-73
2022/10/05 00:22:47;;;;;;;15.10;10.30;;;8.80;99.90;;;;;;5099177;28;20986;-73
2022/10/05 00:25:17;;;;;;;15.33;10.00;;;8.70;99.90;;;;;;5093745;28;20458;-73
2022/10/05 00:27:51;;;;;;;18.43;9.63;;;8.70;99.90;;;;;;5094782;28;20467;-73
2022/10/05 00:30:20;;;;;;;15.53;10.23;;;8.70;99.90;;;;;;5095735;28;20481;-73
2022/10/05 00:32:47;;;;;;;14.47;9.80;;;8.70;99.90;;;;;;5100725;28;20477;-74
2022/10/05 00:35:15;;;;;;;13.17;10.10;;;8.60;99.90;;;;;;5100168;28;20447;-74
2022/10/05 00:37:42;;;;;;;16.03;9.70;;;8.60;99.90;;;;;;5090559;28;20461;-73
2022/10/05 00:40:20;;;;;;;27.40;12.10;;;8.50;99.90;;;;;;5090274;28;20461;-73
2022/10/05 00:42:56;;;;;;;21.40;11.30;;;8.50;99.90;;;;;;5103677;28;20447;-73
2022/10/05 00:45:29;;;;;;;19.03;11.33;;;8.50;99.90;;;;;;5094974;28;20847;-73
2022/10/05 00:48:06;;;;;;;17.13;11.17;;;8.50;99.90;;;;;;5105663;28;20504;-74
2022/10/05 00:50:48;;;;;;;18.53;10.90;;;8.50;99.90;;;;;;5096778;28;20478;-73
2022/10/05 00:53:28;;;;;;;16.73;10.57;;;8.50;99.90;;;;;;5097936;28;20453;-73
2022/10/05 00:56:03;;;;;;;18.50;11.53;;;8.40;99.90;;;;;;5102194;28;20900;-73
2022/10/05 00:58:45;;;;;;;20.43;10.80;;;8.40;99.90;;;;;;5105290;28;20477;-73
2022/10/05 01:01:14;;;;;;;26.60;11.10;;;8.40;99.90;;;;;;5100608;28;21018;-74
2022/10/05 01:03:53;;;;;;;19.23;10.60;;;8.40;99.90;;;;;;5093369;28;20483;-73
2022/10/05 01:06:30;;;;;;;22.03;11.03;;;8.30;99.90;;;;;;5090095;28;20458;-73
2022/10/05 01:09:04;;;;;;;22.30;10.67;;;8.30;99.90;;;;;;5089963;28;20797;-73
2022/10/05 01:11:41;;;;;;;18.80;10.97;;;8.30;99.90;;;;;;5089482;28;20470;-73
2022/10/05 01:14:16;;;;;;;19.97;10.93;;;8.30;99.90;;;;;;5099286;28;20452;-73
2022/10/05 01:16:50;;;;;;;16.90;11.40;;;8.20;99.90;;;;;;5094672;28;20948;-73
2022/10/05 01:19:33;;;;;;;17.13;9.97;;;8.20;99.90;;;;;;5096190;28;20457;-73
2022/10/05 01:22:07;;;;;;;14.87;9.90;;;8.20;99.90;;;;;;5095461;28;20524;-73
2022/10/05 01:24:54;;;;;;;15.47;10.10;;;8.10;99.90;;;;;;5103897;28;20992;-73
2022/10/05 01:27:54;;;;;;;14.87;9.90;;;8.10;99.90;;;;;;5105605;28;20447;-73
2022/10/05 01:30:22;;;;;;;11.13;8.97;;;8.10;99.90;;;;;;5069276;28;20485;-73
2022/10/05 01:32:55;;;;;;;16.83;10.00;;;8.10;99.90;;;;;;5093156;28;20843;-73
2022/10/05 01:35:36;;;;;;;12.40;9.00;;;8.00;99.90;;;;;;5094958;28;20462;-73
2022/10/05 01:38:14;;;;;;;24.43;10.03;;;8.00;99.90;;;;;;5105748;28;20457;-73
2022/10/05 01:40:54;;;;;;;15.43;10.20;;;8.00;99.90;;;;;;5102926;28;20880;-73
2022/10/05 01:43:30;;;;;;;15.10;9.60;;;8.00;99.90;;;;;;5104748;28;20492;-73
2022/10/05 01:46:01;;;;;;;22.17;10.37;;;7.90;99.90;;;;;;5103082;28;20485;-74
2022/10/05 01:48:38;;;;;;;15.90;9.87;;;7.90;99.90;;;;;;5102532;28;20866;-73
2022/10/05 01:51:16;;;;;;;18.77;10.53;;;7.90;99.90;;;;;;5102158;28;20470;-74
2022/10/05 01:53:56;;;;;;;21.73;9.57;;;7.90;99.90;;;;;;5102533;28;20446;-74
2022/10/05 01:56:33;;;;;;;19.57;10.10;;;7.90;99.90;;;;;;5096588;28;20452;-73
2022/10/05 01:59:15;;;;;;;18.37;9.00;;;7.90;99.90;;;;;;5101935;28;20454;-73
2022/10/05 02:01:48;;;;;;;19.47;9.63;;;7.90;99.90;;;;;;5103095;28;20474;-73
2022/10/05 02:04:19;;;;;;;23.40;9.50;;;7.90;99.90;;;;;;5101824;28;20484;-73
2022/10/05 02:06:50;;;;;;;14.67;9.00;;;7.80;99.90;;;;;;5101015;28;20448;-73
2022/10/05 02:09:20;;;;;;;15.20;9.80;;;7.80;99.90;;;;;;5099563;28;20512;-73
2022/10/05 02:11:52;;;;;;;15.77;9.80;;;7.80;99.90;;;;;;5108627;28;20468;-73
2022/10/05 02:14:24;;;;;;;14.80;9.37;;;7.80;99.90;;;;;;5095876;28;20449;-73
2022/10/05 02:16:54;;;;;;;16.70;9.53;;;7.80;99.90;;;;;;5098345;28;20869;-73
2022/10/05 02:19:23;;;;;;;15.63;9.80;;;7.80;99.90;;;;;;5100448;28;20458;-73
2022/10/05 02:21:54;;;;;;;15.77;9.70;;;7.70;99.90;;;;;;5100882;28;20475;-73
2022/10/05 02:24:26;;;;;;;15.30;8.70;;;7.70;99.90;;;;;;5095697;28;20489;-73
2022/10/05 02:26:55;;;;;;;13.50;8.90;;;7.60;99.90;;;;;;5097875;27;20523;-73
2022/10/05 02:29:27;;;;;;;13.20;9.00;;;7.60;99.90;;;;;;5104774;28;20449;-73
2022/10/05 02:31:58;;;;;;;16.30;9.70;;;7.60;99.90;;;;;;5099301;28;20461;-73
2022/10/05 02:34:27;;;;;;;15.43;9.20;;;7.50;99.90;;;;;;5095609;28;20467;-73
2022/10/05 02:37:07;;;;;;;15.00;9.57;;;7.50;99.90;;;;;;5096732;28;20492;-73
2022/10/05 02:39:42;;;;;;;17.50;10.03;;;7.60;99.90;;;;;;5106304;28;20536;-73
2022/10/05 02:42:21;;;;;;;26.03;9.57;;;7.60;99.90;;;;;;5104668;28;20487;-73
2022/10/05 02:44:58;;;;;;;17.93;10.80;;;7.50;99.90;;;;;;5095514;28;20482;-73
2022/10/05 02:47:32;;;;;;;26.50;13.47;;;7.60;99.90;;;;;;5106697;28;20529;-73
2022/10/05 02:50:04;;;;;;;24.23;12.17;;;7.60;99.90;;;;;;5102577;28;20520;-73
2022/10/05 02:52:41;;;;;;;18.13;11.60;;;7.70;99.90;;;;;;5107209;28;20461;-73
2022/10/05 02:55:14;;;;;;;24.10;14.10;;;7.80;99.90;;;;;;5108812;28;20500;-73
2022/10/05 02:57:48;;;;;;;27.40;14.20;;;7.90;99.90;;;;;;5109169;28;20957;-73
2022/10/05 03:00:19;;;;;;;26.23;14.93;;;8.00;99.90;;;;;;5103269;28;20503;-73
2022/10/05 03:02:55;;;;;;;28.63;15.60;;;8.10;99.90;;;;;;5100388;28;20451;-73
2022/10/05 03:05:25;;;;;;;32.53;14.43;;;8.20;99.90;;;;;;5092050;28;20483;-72
2022/10/05 03:07:58;;;;;;;34.03;16.77;;;8.20;99.90;;;;;;5091342;28;20469;-74
2022/10/05 03:10:31;;;;;;;26.00;14.50;;;8.30;99.90;;;;;;5094404;28;20481;-74
2022/10/05 03:13:05;;;;;;;30.60;16.00;;;8.30;99.90;;;;;;5108188;28;20451;-74
2022/10/05 03:15:56;;;;;;;39.13;16.10;;;8.40;99.90;;;;;;5107991;28;20451;-74
2022/10/05 03:18:36;;;;;;;24.70;14.90;;;8.50;99.90;;;;;;5092039;28;20462;-74
2022/10/05 03:21:17;;;;;;;31.17;15.77;;;8.50;99.90;;;;;;5091018;28;20474;-74
2022/10/05 03:24:00;;;;;;;36.30;16.33;;;8.50;99.90;;;;;;5100345;28;20511;-72
2022/10/05 03:26:34;;;;;;;26.40;14.83;;;8.50;99.90;;;;;;5105008;28;20451;-74
2022/10/05 03:29:09;;;;;;;32.20;16.60;;;8.50;99.90;;;;;;5101536;28;20495;-75
2022/10/05 03:31:44;;;;;;;34.67;16.93;;;8.50;99.90;;;;;;5096073;28;20484;-75
2022/10/05 03:34:17;;;;;;;28.47;15.93;;;8.60;99.90;;;;;;5102406;28;20866;-74
2022/10/05 03:36:50;;;;;;;30.47;16.50;;;8.70;99.90;;;;;;5094843;28;20531;-74
2022/10/05 03:39:26;;;;;;;35.23;16.23;;;8.70;99.90;;;;;;5100219;28;20453;-74
2022/10/05 03:42:03;;;;;;;32.00;16.93;;;8.80;99.90;;;;;;5092901;28;20467;-74
2022/10/05 03:44:40;;;;;;;25.67;16.47;;;8.80;99.90;;;;;;5094294;28;20486;-73
2022/10/05 03:47:19;;;;;;;40.27;16.83;;;8.80;99.90;;;;;;5105561;28;20444;-74
2022/10/05 03:50:01;;;;;;;39.63;18.03;;;8.80;99.90;;;;;;5100993;28;20824;-75
2022/10/05 03:52:35;;;;;;;47.77;17.43;;;8.90;99.90;;;;;;5097118;28;20450;-75
2022/10/05 03:55:09;;;;;;;106.80;20.90;;;8.90;99.90;;;;;;5095425;28;20441;-75
2022/10/05 03:57:39;;;;;;;134.07;22.23;;;8.90;99.90;;;;;;5104734;28;20457;-75
2022/10/05 04:00:13;;;;;;;70.43;20.47;;;8.90;99.90;;;;;;5100649;28;20446;-74
2022/10/05 04:02:47;;;;;;;119.80;23.83;;;8.90;99.90;;;;;;5100835;28;20452;-75
2022/10/05 04:05:17;;;;;;;157.33;22.00;;;8.80;99.90;;;;;;5108356;28;20482;-74
2022/10/05 04:07:48;;;;;;;67.47;20.93;;;8.90;99.90;;;;;;5107791;28;20856;-73
2022/10/05 04:10:21;;;;;;;242.00;25.40;;;8.90;99.90;;;;;;5100024;28;20455;-73
2022/10/05 04:12:51;;;;;;;151.03;24.83;;;8.90;99.90;;;;;;5092869;28;20462;-74
2022/10/05 04:15:23;;;;;;;279.20;26.50;;;8.90;99.90;;;;;;5093061;28;20500;-74
2022/10/05 04:17:58;;;;;;;231.03;24.93;;;8.90;99.90;;;;;;5105265;28;20477;-74
2022/10/05 04:20:30;;;;;;;326.47;26.80;;;8.90;99.90;;;;;;5091950;28;20475;-73
2022/10/05 04:23:04;;;;;;;263.60;24.90;;;8.90;99.90;;;;;;5104007;28;20502;-72
2022/10/05 04:25:36;;;;;;;231.13;24.37;;;8.90;99.90;;;;;;5106286;28;20894;-71
2022/10/05 04:28:11;;;;;;;277.00;23.27;;;8.90;99.90;;;;;;5100952;28;20957;-71
2022/10/05 04:30:40;;;;;;;287.33;26.93;;;8.90;99.90;;;;;;5097655;28;20477;-71
2022/10/05 04:33:11;;;;;;;203.87;22.27;;;8.80;99.90;;;;;;5108145;28;20445;-72
2022/10/05 04:36:07;;;;;;;202.57;22.93;;;8.80;99.90;;;;;;5108241;28;20474;-72
2022/10/05 04:38:46;;;;;;;309.77;26.23;;;8.80;99.90;;;;;;5082555;28;20466;-72
2022/10/05 04:41:28;;;;;;;227.17;22.70;;;8.80;99.90;;;;;;5090217;28;20531;-72
2022/10/05 04:44:10;;;;;;;251.70;22.20;;;8.80;99.90;;;;;;5090389;28;20455;-73
2022/10/05 04:46:52;;;;;;;177.50;22.23;;;8.70;99.90;;;;;;5090087;28;20512;-74
2022/10/05 04:49:45;;;;;;;184.53;20.87;;;8.70;99.90;;;;;;5093882;28;20451;-74
2022/10/05 04:52:22;;;;;;;190.03;19.93;;;8.70;99.90;;;;;;5107087;28;21013;-74
2022/10/05 04:55:02;;;;;;;229.90;21.20;;;8.60;99.90;;;;;;5098379;28;20472;-74
2022/10/05 04:57:37;;;;;;;160.67;20.43;;;8.60;99.90;;;;;;5097995;28;20453;-73
2022/10/05 05:00:29;;;;;;;193.47;20.80;;;8.50;99.90;;;;;;5094421;28;20446;-74
2022/10/05 05:03:15;;;;;;;162.33;22.27;;;8.40;99.90;;;;;;5100211;28;20455;-74
2022/10/05 05:05:51;;;;;;;93.40;19.50;;;8.40;99.90;;;;;;5109428;28;20485;-75
2022/10/05 05:08:38;;;;;;;64.07;16.80;;;8.40;99.90;;;;;;5110462;28;20464;-74
2022/10/05 05:11:14;;;;;;;134.53;19.10;;;8.30;99.90;;;;;;5110718;28;20479;-74
2022/10/05 05:14:07;;;;;;;64.63;16.90;;;8.30;99.90;;;;;;5110654;28;20559;-74
2022/10/05 05:16:38;;;;;;;105.40;18.07;;;8.30;99.90;;;;;;5110299;28;20451;-74
2022/10/05 05:19:15;;;;;;;122.13;19.10;;;8.10;99.90;;;;;;5110823;28;20452;-74
2022/10/05 05:21:51;;;;;;;111.93;18.63;;;8.20;99.90;;;;;;5110266;28;20526;-75
2022/10/05 05:24:28;;;;;;;85.63;18.17;;;8.10;99.90;;;;;;5110717;28;20450;-74
2022/10/05 05:27:07;;;;;;;92.90;16.50;;;8.00;99.90;;;;;;5110025;28;20456;-74
2022/10/05 05:29:43;;;;;;;43.47;16.20;;;8.00;99.90;;;;;;5110473;28;20467;-74
2022/10/05 05:32:20;;;;;;;52.00;15.80;;;8.00;99.90;;;;;;5109831;28;20543;-74
2022/10/05 05:35:02;;;;;;;31.50;16.23;;;7.90;99.90;;;;;;5110540;28;20502;-74
2022/10/05 05:37:34;;;;;;;48.27;16.53;;;7.90;99.90;;;;;;5110426;28;20452;-75
2022/10/05 05:40:07;;;;;;;33.37;15.83;;;8.00;99.90;;;;;;5110191;28;20451;-74
2022/10/05 05:42:42;;;;;;;38.07;16.50;;;8.00;99.90;;;;;;5110120;28;20493;-72
2022/10/05 05:45:17;;;;;;;33.43;15.97;;;8.00;99.90;;;;;;5109457;28;20495;-72
2022/10/05 05:47:52;;;;;;;54.50;14.63;;;8.00;99.90;;;;;;5109390;28;20484;-72
2022/10/05 05:50:39;;;;;;;41.17;15.90;;;8.00;99.90;;;;;;5110406;28;20505;-72
2022/10/05 05:53:15;;;;;;;56.53;16.13;;;8.00;99.90;;;;;;5109503;28;20497;-72
2022/10/05 05:55:45;;;;;;;31.47;16.07;;;8.00;99.90;;;;;;5110292;27;20438;-73
2022/10/05 05:58:20;;;;;;;99.57;17.53;;;8.00;99.90;;;;;;5109550;28;20868;-72
2022/10/05 06:00:52;;;;;;;47.93;16.93;;;8.10;99.90;;;;;;5108371;28;20502;-72
2022/10/05 06:03:24;;;;;;;44.73;17.07;;;8.10;99.90;;;;;;5109689;28;20452;-72
2022/10/05 06:05:54;;;;;;;43.87;17.87;;;8.10;99.90;;;;;;5109358;28;20499;-73
2022/10/05 06:08:29;;;;;;;37.40;17.60;;;8.20;99.90;;;;;;5109437;28;20456;-74
2022/10/05 06:11:01;;;;;;;32.93;16.60;;;8.20;99.90;;;;;;5109191;28;20492;-74
2022/10/05 06:13:33;;;;;;;42.83;17.87;;;8.20;99.90;;;;;;5108427;28;20925;-77
2022/10/05 06:16:08;;;;;;;20.97;12.83;;;8.30;99.90;;;;;;5107840;28;20868;-69
2022/10/05 06:18:39;;;;;;;24.47;14.70;;;8.50;99.90;;;;;;5109742;27;20503;-70
2022/10/05 06:21:14;;;;;;;78.80;22.10;;;9.00;99.90;;;;;;5108985;28;20477;-69
2022/10/05 06:23:50;;;;;;;78.30;20.20;;;9.60;99.90;;;;;;5109639;27;20446;-69
2022/10/05 06:26:28;;;;;;;48.93;18.50;;;10.00;99.90;;;;;;5107881;28;20459;-78
2022/10/05 06:28:58;;;;;;;170.70;20.90;;;10.00;99.90;;;;;;5108466;28;20523;-78
2022/10/05 06:31:49;;;;;;;85.60;19.50;;;9.80;99.90;;;;;;5107522;28;20474;-77
2022/10/05 06:34:28;;;;;;;47.97;19.00;;;9.60;99.90;;;;;;5108210;28;20500;-77
2022/10/05 06:37:00;;;;;;;72.03;19.70;;;9.60;99.90;;;;;;5107788;28;20446;-77
2022/10/05 06:39:39;;;;;;;58.37;20.20;;;9.50;99.90;;;;;;5108337;28;20447;-77
2022/10/05 06:42:26;;;;;;;66.97;19.90;;;9.40;99.90;;;;;;5108051;28;20462;-77
2022/10/05 06:45:01;;;;;;;56.00;19.83;;;9.30;99.90;;;;;;5109326;28;20492;-75
2022/10/05 06:47:35;;;;;;;44.20;20.83;;;9.30;99.90;;;;;;5109265;28;20442;-77
2022/10/05 06:50:14;;;;;;;38.67;21.40;;;9.30;99.90;;;;;;5110101;28;20531;-76
2022/10/05 06:52:53;;;;;;;43.77;20.47;;;9.30;99.90;;;;;;5109659;28;20449;-76
2022/10/05 06:55:30;;;;;;;46.17;21.13;;;9.30;99.90;;;;;;5109741;28;20446;-76
2022/10/05 06:58:06;;;;;;;43.73;20.10;;;9.30;99.90;;;;;;5109136;28;20438;-76
2022/10/05 07:00:39;;;;;;;39.70;20.20;;;9.30;99.90;;;;;;5109452;28;20480;-75
2022/10/05 07:03:16;;;;;;;38.60;20.17;;;9.40;99.90;;;;;;5109790;28;20446;-76
2022/10/05 07:05:58;;;;;;;43.60;21.00;;;9.50;99.90;;;;;;5109482;28;20485;-75
2022/10/05 07:08:35;;;;;;;38.63;20.43;;;9.60;99.90;;;;;;5109283;28;20951;-76
2022/10/05 07:11:14;;;;;;;47.13;21.10;;;9.70;99.90;;;;;;5109174;28;20473;-75
2022/10/05 07:14:03;;;;;;;37.50;19.90;;;9.90;99.90;;;;;;5109121;28;20970;-75
2022/10/05 07:16:39;;;;;;;50.03;24.43;;;10.00;99.90;;;;;;5108876;28;20443;-76
2022/10/05 07:19:18;;;;;;;85.33;39.30;;;10.10;99.90;;;;;;5109095;28;21400;-76
2022/10/05 07:21:54;;;;;;;64.00;30.53;;;10.10;99.90;;;;;;5108887;28;20492;-76
2022/10/05 07:24:30;;;;;;;41.30;21.53;;;10.20;99.90;;;;;;5108817;28;20816;-76
2022/10/05 07:27:07;;;;;;;44.50;22.93;;;10.30;99.90;;;;;;5108487;28;20478;-76
2022/10/05 07:29:39;;;;;;;44.73;21.50;;;10.40;99.90;;;;;;5109082;28;20441;-76
2022/10/05 07:32:15;;;;;;;45.00;22.30;;;10.40;99.90;;;;;;5108781;28;20478;-76
2022/10/05 07:34:50;;;;;;;52.23;24.07;;;10.50;99.90;;;;;;5109149;28;20455;-76
2022/10/05 07:40:14;;;;;;;52.27;24.93;;;10.60;99.90;;;;;;5108678;28;20421;-76
2022/10/05 07:43:08;;;;;;;50.73;24.90;;;10.70;99.90;;;;;;5108782;28;20469;-76
2022/10/05 07:45:44;;;;;;;51.67;23.37;;;10.60;99.90;;;;;;5108409;28;20481;-76
2022/10/05 07:48:17;;;;;;;58.13;26.00;;;10.70;99.90;;;;;;5108487;28;20881;-77
2022/10/05 07:50:54;;;;;;;55.30;24.60;;;10.80;99.90;;;;;;5108712;28;20519;-76
2022/10/05 07:53:27;;;;;;;52.73;23.87;;;11.00;99.90;;;;;;5109020;28;20839;-76
2022/10/05 07:55:57;;;;;;;48.77;23.53;;;11.20;99.90;;;;;;5108535;28;20456;-76
2022/10/05 07:58:28;;;;;;;44.63;24.33;;;11.30;99.90;;;;;;5108382;28;20446;-76
2022/10/05 08:01:04;;;;;;;43.67;22.87;;;11.40;99.90;;;;;;5108486;27;20468;-76
2022/10/05 08:03:40;;;;;;;42.87;22.43;;;11.50;99.90;;;;;;5108619;28;20507;-77
2022/10/05 08:06:12;;;;;;;45.97;24.03;;;11.50;99.90;;;;;;5108230;28;20481;-77
2022/10/05 08:08:52;;;;;;;40.90;20.70;;;11.60;99.90;;;;;;5108075;28;20472;-76
2022/10/05 08:11:23;;;;;;;44.63;21.87;;;11.70;99.90;;;;;;5108276;28;20481;-76
2022/10/05 08:13:59;;;;;;;41.60;22.17;;;11.70;99.90;;;;;;5108316;28;20443;-76
2022/10/05 08:16:30;;;;;;;48.63;24.27;;;11.70;99.90;;;;;;5108787;28;20445;-76
2022/10/05 08:19:01;;;;;;;44.60;23.50;;;11.80;99.90;;;;;;5107990;28;20459;-76
2022/10/05 08:21:34;;;;;;;51.87;26.37;;;12.00;99.90;;;;;;5108125;28;20451;-76
2022/10/05 08:24:12;;;;;;;46.70;24.20;;;12.00;99.90;;;;;;5108189;28;20958;-76
2022/10/05 08:26:49;;;;;;;43.90;24.17;;;12.20;99.90;;;;;;5108111;28;20835;-76
2022/10/05 08:29:21;;;;;;;38.07;22.70;;;12.10;99.90;;;;;;5108273;28;20449;-76
2022/10/05 08:31:52;;;;;;;41.60;22.77;;;12.20;99.90;;;;;;5107674;28;20471;-76
2022/10/05 08:34:26;;;;;;;44.87;22.73;;;12.20;99.90;;;;;;5108394;28;20959;-76
2022/10/05 08:37:02;;;;;;;41.30;23.13;;;12.30;99.90;;;;;;5110179;28;20447;-76
2022/10/05 08:39:33;;;;;;;41.83;21.80;;;12.40;99.90;;;;;;5112491;28;20545;-76
2022/10/05 08:42:45;;;;;;;37.30;23.50;;;12.50;99.90;;;;;;5111797;28;20463;-77
2022/10/05 08:45:36;;;;;;;39.87;21.37;;;12.50;99.90;;;;;;5112160;28;20644;-76
2022/10/05 08:48:48;;;;;;;39.77;21.77;;;12.90;99.90;;;;;;5112293;28;20448;-76
2022/10/05 08:51:39;;;;;;;36.63;20.40;;;13.10;99.90;;;;;;5112015;28;20470;-76
2022/10/05 08:54:27;;;;;;;35.13;18.47;;;13.40;99.90;;;;;;5111984;28;20447;-76
2022/10/05 08:57:14;;;;;;;33.33;19.97;;;13.60;99.90;;;;;;5110454;28;20447;-76
2022/10/05 09:00:12;;;;;;;32.23;20.23;;;13.50;99.90;;;;;;5111205;28;20442;-76
2022/10/05 09:03:04;;;;;;;32.93;20.33;;;13.50;99.90;;;;;;5102219;28;20454;-76
2022/10/05 09:06:07;;;;;;;32.23;18.13;;;13.90;99.90;;;;;;5109574;27;20512;-76
2022/10/05 09:08:55;;;;;;;31.83;18.10;;;14.40;99.90;;;;;;5111619;27;20870;-76
2022/10/05 09:11:25;;;;;;;30.87;18.00;;;14.40;99.90;;;;;;5111739;28;20473;-76
2022/10/05 09:14:34;;;;;;;32.57;18.80;;;14.50;99.90;;;;;;5111825;28;20462;-78
2022/10/05 09:17:22;;;;;;;29.80;18.33;;;14.70;99.90;;;;;;5110981;28;20488;-76
2022/10/05 09:19:59;;;;;;;32.10;18.40;;;15.10;99.90;;;;;;5111569;28;20443;-77
2022/10/05 09:22:37;;;;;;;30.90;19.73;;;15.10;99.90;;;;;;5111530;28;20450;-77
2022/10/05 09:25:22;;;;;;;33.57;18.53;;;15.20;99.90;;;;;;5111380;28;20456;-77
2022/10/05 09:27:54;;;;;;;26.57;16.87;;;15.50;99.90;;;;;;5111211;27;20830;-77
2022/10/05 09:30:50;;;;;;;25.50;16.43;;;15.50;99.90;;;;;;5111101;28;20466;-77
2022/10/05 09:33:55;;;;;;;32.00;18.70;;;15.30;99.90;;;;;;5111332;28;20461;-77
2022/10/05 09:37:13;;;;;;;35.60;20.10;;;15.20;99.90;;;;;;5111360;28;20401;-77
2022/10/05 09:40:23;;;;;;;30.17;17.30;;;15.40;99.90;;;;;;5110593;28;20442;-77
2022/10/05 09:43:07;;;;;;;29.90;17.90;;;15.40;99.90;;;;;;5110861;28;21275;-77
2022/10/05 09:46:10;;;;;;;31.50;17.47;;;15.40;99.90;;;;;;5111069;28;21278;-77
2022/10/05 09:49:06;;;;;;;34.20;18.20;;;15.60;99.90;;;;;;5107000;27;20449;-77
2022/10/05 09:52:01;;;;;;;28.50;16.37;;;15.60;99.90;;;;;;5110738;28;20463;-77
2022/10/05 09:55:05;;;;;;;28.67;16.03;;;15.50;99.90;;;;;;5110667;28;20442;-77
2022/10/05 09:58:12;;;;;;;34.83;17.97;;;15.20;99.90;;;;;;5094514;28;20442;-78
2022/10/05 10:01:05;;;;;;;31.70;18.10;;;15.00;99.90;;;;;;5110132;28;20539;-77
2022/10/05 10:04:16;;;;;;;29.63;18.00;;;15.20;99.90;;;;;;5110731;28;20451;-77
2022/10/05 10:07:09;;;;;;;31.80;17.50;;;15.40;99.90;;;;;;5110141;28;20486;-77
2022/10/05 10:09:48;;;;;;;31.73;17.43;;;15.00;99.90;;;;;;5110123;28;20864;-78
2022/10/05 10:12:37;;;;;;;29.37;19.13;;;14.90;99.90;;;;;;5110191;28;20450;-77
2022/10/05 10:15:40;;;;;;;35.90;18.27;;;14.70;99.90;;;;;;5110386;28;20499;-77
2022/10/05 10:18:29;;;;;;;34.90;18.90;;;14.70;99.90;;;;;;5109999;28;20450;-77
2022/10/05 10:21:22;;;;;;;39.20;21.20;;;14.80;99.90;;;;;;5110216;28;20475;-77
2022/10/05 10:24:03;;;;;;;35.43;18.03;;;15.10;99.90;;;;;;5110333;28;20991;-77
2022/10/05 10:27:15;;;;;;;29.13;16.97;;;15.60;99.90;;;;;;5110280;28;20470;-77
2022/10/05 10:30:18;;;;;;;28.10;17.30;;;16.10;99.90;;;;;;5110009;28;20458;-77
2022/10/05 10:33:10;;;;;;;36.63;16.77;;;16.50;99.90;;;;;;5110164;28;20461;-77
2022/10/05 10:35:39;;;;;;;25.13;15.77;;;16.70;99.90;;;;;;5110087;28;21226;-77
2022/10/05 10:38:27;;;;;;;24.80;15.83;;;17.00;99.90;;;;;;5109819;28;20459;-77
2022/10/05 10:41:34;;;;;;;24.43;15.30;;;17.40;99.90;;;;;;5109459;28;20550;-79
2022/10/05 10:44:40;;;;;;;22.10;14.30;;;17.70;99.90;;;;;;5106428;28;20446;-77
2022/10/05 10:47:35;;;;;;;22.33;13.57;;;17.80;99.90;;;;;;5109441;28;20977;-77
2022/10/05 10:50:54;;;;;;;18.23;12.40;;;17.70;99.90;;;;;;5109537;28;20428;-77
2022/10/05 10:53:37;;;;;;;19.73;13.60;;;17.70;99.90;;;;;;5110099;28;20406;-77
2022/10/05 10:56:19;;;;;;;21.57;13.80;;;17.50;99.90;;;;;;5108916;28;20897;-77
2022/10/05 10:59:22;;;;;;;18.37;12.40;;;17.00;99.90;;;;;;5109555;28;20457;-78
2022/10/05 11:02:15;;;;;;;19.17;12.17;;;16.90;99.90;;;;;;5108250;28;20440;-77
2022/10/05 11:05:22;;;;;;;19.10;12.80;;;16.80;99.90;;;;;;5109535;28;20430;-77
2022/10/05 11:08:27;;;;;;;21.10;12.30;;;17.10;99.90;;;;;;5104831;27;20462;-77
2022/10/05 11:11:10;;;;;;;22.50;13.10;;;17.40;99.90;;;;;;5108291;28;20459;-77
2022/10/05 11:13:52;;;;;;;16.03;12.43;;;17.40;99.90;;;;;;5109533;28;20417;-77
2022/10/05 11:16:45;;;;;;;18.63;11.37;;;17.60;99.90;;;;;;5109245;28;20492;-77
2022/10/05 11:19:43;;;;;;;23.33;11.93;;;18.00;99.90;;;;;;5109065;28;20451;-77
2022/10/05 11:22:30;;;;;;;19.67;10.90;;;18.20;99.90;;;;;;5108506;28;20485;-76
2022/10/05 11:25:27;;;;;;;12.40;10.27;;;18.30;99.90;;;;;;5109493;28;20470;-76
2022/10/05 11:28:05;;;;;;;7.70;4.97;;;18.50;99.90;;;;;;5086089;28;20893;-76
2022/10/05 11:31:18;;;;;;;5.00;4.50;;;18.80;99.90;;;;;;5108371;28;20483;-77
2022/10/05 11:34:11;;;;;;;5.10;4.53;;;19.30;99.90;;;;;;5108379;28;20983;-77
2022/10/05 11:37:10;;;;;;;13.37;8.57;;;19.70;99.90;;;;;;5108678;28;20490;-77
2022/10/05 11:39:44;;;;;;;15.17;8.53;;;19.70;99.90;;;;;;5109169;28;20450;-77
2022/10/05 11:42:42;;;;;;;10.20;8.70;;;19.80;99.90;;;;;;5108673;28;20449;-77
2022/10/05 11:45:23;;;;;;;10.80;8.70;;;19.60;99.90;;;;;;5108918;28;20418;-77
2022/10/05 11:48:32;;;;;;;14.30;8.37;;;19.20;99.90;;;;;;5108036;28;20464;-77
2022/10/05 11:51:22;;;;;;;11.80;8.47;;;19.10;99.90;;;;;;5089821;28;20462;-77
2022/10/05 11:53:56;;;;;;;10.57;8.77;;;19.10;99.90;;;;;;5108787;28;20421;-77
2022/10/05 11:56:28;;;;;;;11.60;8.30;;;19.00;99.90;;;;;;5108548;28;20444;-78
2022/10/05 11:59:00;;;;;;;11.00;8.90;;;18.90;99.90;;;;;;5108445;28;20747;-76
2022/10/05 12:01:33;;;;;;;11.47;8.63;;;19.00;99.90;;;;;;5107754;28;20531;-77
2022/10/05 12:04:13;;;;;;;21.43;9.10;;;19.00;99.90;;;;;;5108113;28;20458;-77
2022/10/05 12:06:59;;;;;;;11.18;8.25;;;19.10;99.90;;;;;;5107348;28;20825;-77
2022/10/05 12:10:12;;;;;;;9.97;8.43;;;19.10;99.90;;;;;;5108334;27;20219;-77
2022/10/05 12:12:36;;;;;;;10.80;8.83;;;19.40;99.90;;;;;;5107410;28;20506;-78
2022/10/05 12:15:13;;;;;;;11.73;7.87;;;19.40;99.90;;;;;;5108236;28;20930;-76
2022/10/05 12:17:46;;;;;;;12.20;8.23;;;19.60;99.90;;;;;;5107962;28;20878;-76
2022/10/05 12:20:16;;;;;;;12.27;7.13;;;19.70;99.90;;;;;;5108237;28;20429;-76
2022/10/05 12:22:50;;;;;;;10.03;7.50;;;19.70;99.90;;;;;;5107768;28;20420;-76
2022/10/05 12:25:21;;;;;;;5.53;5.03;;;20.00;99.90;;;;;;5108426;28;20443;-76
2022/10/05 12:27:52;;;;;;;4.90;4.50;;;20.30;99.90;;;;;;5107668;28;20458;-76
2022/10/05 12:30:28;;;;;;;8.00;5.40;;;20.50;99.90;;;;;;5107299;28;20534;-76
2022/10/05 12:33:04;;;;;;;8.97;8.10;;;20.50;99.90;;;;;;5108065;28;21539;-77
2022/10/05 12:35:39;;;;;;;7.97;7.17;;;20.60;99.90;;;;;;5106988;28;20442;-77
2022/10/05 12:38:16;;;;;;;6.63;5.47;;;20.60;99.90;;;;;;5108428;28;20868;-76
2022/10/05 12:40:45;;;;;;;12.33;7.40;;;20.80;99.90;;;;;;5107833;28;20478;-76
2022/10/05 12:43:23;;;;;;;9.53;7.73;;;21.20;99.90;;;;;;5106867;28;20505;-75
2022/10/05 12:45:59;;;;;;;12.43;8.63;;;21.10;99.90;;;;;;5107828;28;21106;-75
2022/10/05 12:48:43;;;;;;;9.67;8.43;;;21.00;99.90;;;;;;5107702;28;21104;-75
2022/10/05 12:51:18;;;;;;;8.67;7.10;;;20.90;99.90;;;;;;5107944;28;20527;-76
2022/10/05 12:53:55;;;;;;;6.33;5.27;;;21.00;99.90;;;;;;5107353;28;20869;-77
2022/10/05 12:56:34;;;;;;;10.13;7.30;;;21.30;99.90;;;;;;5106466;28;20450;-75
2022/10/05 12:59:09;;;;;;;6.20;4.80;;;21.30;99.90;;;;;;5106867;28;20971;-76
2022/10/05 13:01:41;;;;;;;4.10;3.70;;;21.30;99.90;;;;;;5106695;28;21302;-76
2022/10/05 13:04:25;;;;;;;4.10;3.70;;;21.50;99.90;;;;;;5106075;28;20491;-76
2022/10/05 13:07:07;;;;;;;3.72;3.13;;;21.60;99.90;;;;;;5106533;28;20958;-75
2022/10/05 13:09:42;;;;;;;5.83;4.10;;;21.40;99.90;;;;;;5108326;28;20208;-76
2022/10/05 13:12:16;;;;;;;4.77;4.03;;;21.50;99.90;;;;;;5107477;28;20477;-76
2022/10/05 13:14:54;;;;;;;5.50;4.40;;;21.70;99.90;;;;;;5107616;28;20458;-75
2022/10/05 13:17:28;;;;;;;5.40;3.90;;;21.60;99.90;;;;;;5107762;28;20478;-75
2022/10/05 13:19:58;;;;;;;6.17;3.87;;;21.50;99.90;;;;;;5108129;28;20456;-76
2022/10/05 13:22:31;;;;;;;8.20;3.90;;;21.30;99.90;;;;;;5107576;28;20553;-75
2022/10/05 13:25:08;;;;;;;5.90;4.30;;;21.20;99.90;;;;;;5110919;28;20492;-75
2022/10/05 13:27:36;;;;;;;5.67;3.97;;;21.10;99.90;;;;;;5111631;28;20478;-76
2022/10/05 13:30:12;;;;;;;6.10;3.70;;;21.20;99.90;;;;;;5110802;28;20955;-76
2022/10/05 13:32:44;;;;;;;3.97;3.63;;;21.20;99.90;;;;;;5110538;28;20442;-76
2022/10/05 13:35:28;;;;;;;5.63;3.53;;;21.30;99.90;;;;;;5111474;28;20446;-76
2022/10/05 13:38:01;;;;;;;7.07;3.53;;;21.50;99.90;;;;;;5110249;28;20477;-76
2022/10/05 13:40:34;;;;;;;7.57;3.50;;;21.80;99.90;;;;;;5110796;28;21054;-76